sensor_id;sensor_type;location;lat;lon;timestamp;temperature;humidity
31695;DHT22;18289;51.330;4.946;2023-02-18T00:00:49;11.90;99.90
31695;DHT22;18289;51.330;4.946;2023-02-18T00:03:15;12.00;99.90
31695;DHT22;18289;51.330;4.946;2023-02-18T00:05:40;11.90;99.90
31695;DHT22;18289;51.330;4.946;2023-02-18T00:08:06;11.90;99.90
31695;DHT22;18289;51.330;4.946;2023-02-18T00:10:32;11.80;99.90
31695;DHT22;18289;51.330;4.946;2023-02-18T00:12:59;11.80;99.90
31695;DHT22;18289;51.330;4.946;2023-02-18T00:15:26;11.90;99.90
31695;DHT22;18289;51.330;4.946;2023-02-18T00:17:51;11.90;99.90
31695;DHT22;18289;51.330;4.946;2023-02-18T00:20:17;11.80;99.90
31695;DHT22;18289;51.330;4.946;2023-02-18T00:22:43;11.80;99.90
31695;DHT22;18289;51.330;4.946;2023-02-18T00:25:08;11.80;99.90
31695;DHT22;18289;51.330;4.946;2023-02-18T00:27:34;11.90;99.90
31695;DHT22;18289;51.330;4.946;2023-02-18T00:30:00;11.90;99.90
31695;DHT22;18289;51.330;4.946;2023-02-18T00:32:25;11.90;99.90
31695;DHT22;18289;51.330;4.946;2023-02-18T00:34:51;11.80;99.90
31695;DHT22;18289;51.330;4.946;2023-02-18T00:37:17;11.80;99.90
31695;DHT22;18289;51.330;4.946;2023-02-18T00:39:43;11.80;99.90
31695;DHT22;18289;51.330;4.946;2023-02-18T00:42:08;11.70;99.90
31695;DHT22;18289;51.330;4.946;2023-02-18T00:44:34;11.70;99.90
31695;DHT22;18289;51.330;4.946;2023-02-18T00:47:00;11.70;99.90
31695;DHT22;18289;51.330;4.946;2023-02-18T00:49:26;11.70;99.90
31695;DHT22;18289;51.330;4.946;2023-02-18T00:51:51;11.60;99.90
31695;DHT22;18289;51.330;4.946;2023-02-18T00:54:17;11.50;99.90
31695;DHT22;18289;51.330;4.946;2023-02-18T00:56:42;11.50;99.90
31695;DHT22;18289;51.330;4.946;2023-02-18T00:59:08;11.50;99.90
31695;DHT22;18289;51.330;4.946;2023-02-18T01:01:34;11.50;99.90
31695;DHT22;18289;51.330;4.946;2023-02-18T01:04:00;11.40;99.90
31695;DHT22;18289;51.330;4.946;2023-02-18T01:06:25;11.50;99.90
31695;DHT22;18289;51.330;4.946;2023-02-18T01:08:51;11.50;99.90
31695;DHT22;18289;51.330;4.946;2023-02-18T01:11:17;11.50;99.90
31695;DHT22;18289;51.330;4.946;2023-02-18T01:13:42;11.40;99.90
31695;DHT22;18289;51.330;4.946;2023-02-18T01:16:09;11.40;99.90
31695;DHT22;18289;51.330;4.946;2023-02-18T01:18:35;11.40;99.90
31695;DHT22;18289;51.330;4.946;2023-02-18T01:21:01;11.40;99.90
31695;DHT22;18289;51.330;4.946;2023-02-18T01:23:26;11.50;99.90
31695;DHT22;18289;51.330;4.946;2023-02-18T01:25:53;11.50;99.90
31695;DHT22;18289;51.330;4.946;2023-02-18T01:28:18;11.50;99.90
31695;DHT22;18289;51.330;4.946;2023-02-18T01:30:45;11.50;99.90
31695;DHT22;18289;51.330;4.946;2023-02-18T01:33:11;11.50;99.90
31695;DHT22;18289;51.330;4.946;2023-02-18T01:35:39;11.50;99.90
31695;DHT22;18289;51.330;4.946;2023-02-18T01:38:05;11.50;99.90
31695;DHT22;18289;51.330;4.946;2023-02-18T01:40:30;11.40;99.90
31695;DHT22;18289;51.330;4.946;2023-02-18T01:42:56;11.50;99.90
31695;DHT22;18289;51.330;4.946;2023-02-18T01:48:29;11.50;99.90
31695;DHT22;18289;51.330;4.946;2023-02-18T01:51:03;11.50;99.90
31695;DHT22;18289;51.330;4.946;2023-02-18T01:56:28;11.40;99.90
31695;DHT22;18289;51.330;4.946;2023-02-18T01:58:59;11.40;99.90
31695;DHT22;18289;51.330;4.946;2023-02-18T02:01:26;11.40;99.90
31695;DHT22;18289;51.330;4.946;2023-02-18T02:03:51;11.40;99.90
31695;DHT22;18289;51.330;4.946;2023-02-18T02:06:19;11.50;99.90
31695;DHT22;18289;51.330;4.946;2023-02-18T02:08:47;11.30;99.90
31695;DHT22;18289;51.330;4.946;2023-02-18T02:11:51;11.40;99.90
31695;DHT22;18289;51.330;4.946;2023-02-18T02:17:30;11.30;99.90
31695;DHT22;18289;51.330;4.946;2023-02-18T02:36:55;11.10;99.90
31695;DHT22;18289;51.330;4.946;2023-02-18T02:39:33;11.10;99.90
31695;DHT22;18289;51.330;4.946;2023-02-18T02:45:03;11.10;99.90
31695;DHT22;18289;51.330;4.946;2023-02-18T02:47:43;11.10;99.90
31695;DHT22;18289;51.330;4.946;2023-02-18T02:50:25;11.10;99.90
31695;DHT22;18289;51.330;4.946;2023-02-18T02:52:58;11.00;99.90
31695;DHT22;18289;51.330;4.946;2023-02-18T02:55:26;11.00;99.90
31695;DHT22;18289;51.330;4.946;2023-02-18T02:57:54;11.00;99.90
31695;DHT22;18289;51.330;4.946;2023-02-18T03:00:47;11.00;99.90
31695;DHT22;18289;51.330;4.946;2023-02-18T03:03:19;11.00;99.90
31695;DHT22;18289;51.330;4.946;2023-02-18T03:06:06;11.10;99.90
31695;DHT22;18289;51.330;4.946;2023-02-18T03:11:10;11.00;99.90
31695;DHT22;18289;51.330;4.946;2023-02-18T03:16:24;11.10;99.90
31695;DHT22;18289;51.330;4.946;2023-02-18T03:19:12;11.10;99.90
31695;DHT22;18289;51.330;4.946;2023-02-18T03:24:17;11.00;99.90
31695;DHT22;18289;51.330;4.946;2023-02-18T03:26:48;11.00;99.90
31695;DHT22;18289;51.330;4.946;2023-02-18T03:29:17;11.00;99.90
31695;DHT22;18289;51.330;4.946;2023-02-18T03:31:46;11.00;99.90
31695;DHT22;18289;51.330;4.946;2023-02-18T03:34:17;10.90;99.90
31695;DHT22;18289;51.330;4.946;2023-02-18T03:36:44;10.90;99.90
31695;DHT22;18289;51.330;4.946;2023-02-18T03:39:14;10.80;99.90
31695;DHT22;18289;51.330;4.946;2023-02-18T03:41:41;10.90;99.90
31695;DHT22;18289;51.330;4.946;2023-02-18T03:44:08;10.90;99.90
31695;DHT22;18289;51.330;4.946;2023-02-18T03:46:36;10.90;99.90
31695;DHT22;18289;51.330;4.946;2023-02-18T03:49:02;10.90;99.90
31695;DHT22;18289;51.330;4.946;2023-02-18T03:51:28;10.90;99.90
31695;DHT22;18289;51.330;4.946;2023-02-18T03:53:54;10.90;99.90
31695;DHT22;18289;51.330;4.946;2023-02-18T03:56:19;10.80;99.90
31695;DHT22;18289;51.330;4.946;2023-02-18T03:58:45;10.80;99.90
31695;DHT22;18289;51.330;4.946;2023-02-18T04:01:11;10.80;99.90
31695;DHT22;18289;51.330;4.946;2023-02-18T04:03:37;10.70;99.90
31695;DHT22;18289;51.330;4.946;2023-02-18T04:06:03;10.70;99.90
31695;DHT22;18289;51.330;4.946;2023-02-18T04:08:28;10.70;99.90
31695;DHT22;18289;51.330;4.946;2023-02-18T04:10:54;10.70;99.90
31695;DHT22;18289;51.330;4.946;2023-02-18T04:13:21;10.90;99.90
31695;DHT22;18289;51.330;4.946;2023-02-18T04:15:50;10.80;99.90
31695;DHT22;18289;51.330;4.946;2023-02-18T04:18:16;10.80;99.90
31695;DHT22;18289;51.330;4.946;2023-02-18T04:20:42;10.80;99.90
31695;DHT22;18289;51.330;4.946;2023-02-18T04:23:08;10.80;99.90
31695;DHT22;18289;51.330;4.946;2023-02-18T04:25:34;10.80;99.90
31695;DHT22;18289;51.330;4.946;2023-02-18T04:27:59;10.70;99.90
31695;DHT22;18289;51.330;4.946;2023-02-18T04:30:25;10.70;99.90
31695;DHT22;18289;51.330;4.946;2023-02-18T04:32:51;10.70;99.90
31695;DHT22;18289;51.330;4.946;2023-02-18T04:35:17;10.80;99.90
31695;DHT22;18289;51.330;4.946;2023-02-18T04:37:42;10.80;99.90
31695;DHT22;18289;51.330;4.946;2023-02-18T04:40:08;10.80;99.90
31695;DHT22;18289;51.330;4.946;2023-02-18T04:42:34;10.70;99.90
31695;DHT22;18289;51.330;4.946;2023-02-18T04:45:00;10.80;99.90
31695;DHT22;18289;51.330;4.946;2023-02-18T04:47:25;10.80;99.90
31695;DHT22;18289;51.330;4.946;2023-02-18T04:49:51;10.80;99.90
31695;DHT22;18289;51.330;4.946;2023-02-18T04:52:17;10.80;99.90
31695;DHT22;18289;51.330;4.946;2023-02-18T04:54:43;10.70;99.90
31695;DHT22;18289;51.330;4.946;2023-02-18T04:57:09;10.70;99.90
31695;DHT22;18289;51.330;4.946;2023-02-18T04:59:35;10.60;99.90
31695;DHT22;18289;51.330;4.946;2023-02-18T05:02:01;10.60;99.90
31695;DHT22;18289;51.330;4.946;2023-02-18T05:04:27;10.70;99.90
31695;DHT22;18289;51.330;4.946;2023-02-18T05:06:52;10.60;99.90
31695;DHT22;18289;51.330;4.946;2023-02-18T05:09:18;10.60;99.90
31695;DHT22;18289;51.330;4.946;2023-02-18T05:11:44;10.60;99.90
31695;DHT22;18289;51.330;4.946;2023-02-18T05:14:10;10.60;99.90
31695;DHT22;18289;51.330;4.946;2023-02-18T05:16:35;10.70;99.90
31695;DHT22;18289;51.330;4.946;2023-02-18T05:19:01;10.60;99.90
31695;DHT22;18289;51.330;4.946;2023-02-18T05:21:27;10.60;99.90
31695;DHT22;18289;51.330;4.946;2023-02-18T05:23:52;10.60;99.90
31695;DHT22;18289;51.330;4.946;2023-02-18T05:26:18;10.70;99.90
31695;DHT22;18289;51.330;4.946;2023-02-18T05:28:44;10.60;99.90
31695;DHT22;18289;51.330;4.946;2023-02-18T05:31:09;10.60;99.90
31695;DHT22;18289;51.330;4.946;2023-02-18T05:33:35;10.60;99.90
31695;DHT22;18289;51.330;4.946;2023-02-18T05:36:01;10.70;99.90
31695;DHT22;18289;51.330;4.946;2023-02-18T05:38:26;10.60;99.90
31695;DHT22;18289;51.330;4.946;2023-02-18T05:40:52;10.60;99.90
31695;DHT22;18289;51.330;4.946;2023-02-18T05:43:18;10.70;99.90
31695;DHT22;18289;51.330;4.946;2023-02-18T05:45:43;10.70;99.90
31695;DHT22;18289;51.330;4.946;2023-02-18T05:48:09;10.60;99.90
31695;DHT22;18289;51.330;4.946;2023-02-18T05:50:38;10.60;99.90
31695;DHT22;18289;51.330;4.946;2023-02-18T05:53:06;10.60;99.90
31695;DHT22;18289;51.330;4.946;2023-02-18T05:55:32;10.60;99.90
31695;DHT22;18289;51.330;4.946;2023-02-18T05:58:02;10.70;99.90
31695;DHT22;18289;51.330;4.946;2023-02-18T06:00:28;10.70;99.90
31695;DHT22;18289;51.330;4.946;2023-02-18T06:02:55;10.60;99.90
31695;DHT22;18289;51.330;4.946;2023-02-18T06:05:20;10.60;99.90
31695;DHT22;18289;51.330;4.946;2023-02-18T06:07:46;10.60;99.90
31695;DHT22;18289;51.330;4.946;2023-02-18T06:10:12;10.60;99.90
31695;DHT22;18289;51.330;4.946;2023-02-18T06:12:37;10.60;99.90
31695;DHT22;18289;51.330;4.946;2023-02-18T06:15:03;10.50;99.90
31695;DHT22;18289;51.330;4.946;2023-02-18T06:17:29;10.50;99.90
31695;DHT22;18289;51.330;4.946;2023-02-18T06:19:55;10.50;99.90
31695;DHT22;18289;51.330;4.946;2023-02-18T06:22:20;10.50;99.90
31695;DHT22;18289;51.330;4.946;2023-02-18T06:24:46;10.50;99.90
31695;DHT22;18289;51.330;4.946;2023-02-18T06:27:12;10.50;99.90
31695;DHT22;18289;51.330;4.946;2023-02-18T06:29:38;10.50;99.90
31695;DHT22;18289;51.330;4.946;2023-02-18T06:32:04;10.50;99.90
31695;DHT22;18289;51.330;4.946;2023-02-18T06:34:29;10.40;99.90
31695;DHT22;18289;51.330;4.946;2023-02-18T06:36:55;10.40;99.90
31695;DHT22;18289;51.330;4.946;2023-02-18T06:39:21;10.30;99.90
31695;DHT22;18289;51.330;4.946;2023-02-18T06:41:46;10.30;99.90
31695;DHT22;18289;51.330;4.946;2023-02-18T06:44:12;10.30;99.90
31695;DHT22;18289;51.330;4.946;2023-02-18T06:46:39;10.20;99.90
31695;DHT22;18289;51.330;4.946;2023-02-18T06:49:05;10.20;99.90
31695;DHT22;18289;51.330;4.946;2023-02-18T06:51:31;10.20;99.90
31695;DHT22;18289;51.330;4.946;2023-02-18T06:53:56;10.20;99.90
31695;DHT22;18289;51.330;4.946;2023-02-18T06:56:22;10.20;99.90
31695;DHT22;18289;51.330;4.946;2023-02-18T06:58:47;10.20;99.90
31695;DHT22;18289;51.330;4.946;2023-02-18T07:01:13;10.30;99.90
31695;DHT22;18289;51.330;4.946;2023-02-18T07:03:39;10.20;99.90
31695;DHT22;18289;51.330;4.946;2023-02-18T07:06:05;10.20;99.90
31695;DHT22;18289;51.330;4.946;2023-02-18T07:08:30;10.10;99.90
31695;DHT22;18289;51.330;4.946;2023-02-18T07:11:00;10.20;99.90
31695;DHT22;18289;51.330;4.946;2023-02-18T07:13:26;10.10;99.90
31695;DHT22;18289;51.330;4.946;2023-02-18T07:15:51;10.10;99.90
31695;DHT22;18289;51.330;4.946;2023-02-18T07:18:17;10.10;99.90
31695;DHT22;18289;51.330;4.946;2023-02-18T07:20:43;10.10;99.90
31695;DHT22;18289;51.330;4.946;2023-02-18T07:23:08;10.10;99.90
31695;DHT22;18289;51.330;4.946;2023-02-18T07:25:35;10.10;99.90
31695;DHT22;18289;51.330;4.946;2023-02-18T07:28:01;10.30;99.90
31695;DHT22;18289;51.330;4.946;2023-02-18T07:30:27;10.30;99.90
31695;DHT22;18289;51.330;4.946;2023-02-18T07:32:54;10.20;99.90
31695;DHT22;18289;51.330;4.946;2023-02-18T07:35:20;10.20;99.90
31695;DHT22;18289;51.330;4.946;2023-02-18T07:37:47;10.30;99.90
31695;DHT22;18289;51.330;4.946;2023-02-18T07:40:15;10.30;99.90
31695;DHT22;18289;51.330;4.946;2023-02-18T07:42:41;10.30;99.90
31695;DHT22;18289;51.330;4.946;2023-02-18T07:45:07;10.40;99.90
31695;DHT22;18289;51.330;4.946;2023-02-18T07:47:33;10.40;99.90
31695;DHT22;18289;51.330;4.946;2023-02-18T07:49:59;10.40;99.90
31695;DHT22;18289;51.330;4.946;2023-02-18T07:52:25;10.40;99.90
31695;DHT22;18289;51.330;4.946;2023-02-18T07:54:50;10.40;99.90
31695;DHT22;18289;51.330;4.946;2023-02-18T07:57:16;10.50;99.90
31695;DHT22;18289;51.330;4.946;2023-02-18T07:59:42;10.40;99.90
31695;DHT22;18289;51.330;4.946;2023-02-18T08:02:18;10.50;99.90
31695;DHT22;18289;51.330;4.946;2023-02-18T08:04:44;10.50;99.90
31695;DHT22;18289;51.330;4.946;2023-02-18T08:07:15;10.50;99.90
31695;DHT22;18289;51.330;4.946;2023-02-18T08:09:41;10.60;99.90
31695;DHT22;18289;51.330;4.946;2023-02-18T08:12:07;10.50;99.90
31695;DHT22;18289;51.330;4.946;2023-02-18T08:14:33;10.70;99.90
31695;DHT22;18289;51.330;4.946;2023-02-18T08:16:59;10.70;99.90
31695;DHT22;18289;51.330;4.946;2023-02-18T08:19:24;10.70;99.90
31695;DHT22;18289;51.330;4.946;2023-02-18T08:21:50;10.80;99.90
31695;DHT22;18289;51.330;4.946;2023-02-18T08:24:16;10.70;99.90
31695;DHT22;18289;51.330;4.946;2023-02-18T08:26:41;10.80;99.90
31695;DHT22;18289;51.330;4.946;2023-02-18T08:29:07;10.90;99.90
31695;DHT22;18289;51.330;4.946;2023-02-18T08:31:34;11.00;99.90
31695;DHT22;18289;51.330;4.946;2023-02-18T08:34:00;11.00;99.90
31695;DHT22;18289;51.330;4.946;2023-02-18T08:36:27;11.10;99.90
31695;DHT22;18289;51.330;4.946;2023-02-18T08:38:53;11.10;99.90
31695;DHT22;18289;51.330;4.946;2023-02-18T08:41:19;11.10;99.90
31695;DHT22;18289;51.330;4.946;2023-02-18T08:43:45;11.20;99.90
31695;DHT22;18289;51.330;4.946;2023-02-18T08:46:12;11.20;99.90
31695;DHT22;18289;51.330;4.946;2023-02-18T08:48:38;11.20;99.90
31695;DHT22;18289;51.330;4.946;2023-02-18T08:51:30;11.20;99.90
31695;DHT22;18289;51.330;4.946;2023-02-18T08:53:56;11.20;99.90
31695;DHT22;18289;51.330;4.946;2023-02-18T08:56:21;11.30;99.90
31695;DHT22;18289;51.330;4.946;2023-02-18T08:58:47;11.30;99.90
31695;DHT22;18289;51.330;4.946;2023-02-18T09:01:13;11.20;99.90
31695;DHT22;18289;51.330;4.946;2023-02-18T09:03:39;11.30;99.90
31695;DHT22;18289;51.330;4.946;2023-02-18T09:06:05;11.40;99.90
31695;DHT22;18289;51.330;4.946;2023-02-18T09:08:31;11.40;99.90
31695;DHT22;18289;51.330;4.946;2023-02-18T09:10:59;11.40;99.90
31695;DHT22;18289;51.330;4.946;2023-02-18T09:13:25;11.50;99.90
31695;DHT22;18289;51.330;4.946;2023-02-18T09:16:03;11.40;99.90
31695;DHT22;18289;51.330;4.946;2023-02-18T09:18:29;11.40;99.90
31695;DHT22;18289;51.330;4.946;2023-02-18T09:20:56;11.50;99.90
31695;DHT22;18289;51.330;4.946;2023-02-18T09:23:24;11.50;99.90
31695;DHT22;18289;51.330;4.946;2023-02-18T09:25:49;11.50;99.90
31695;DHT22;18289;51.330;4.946;2023-02-18T09:28:15;11.50;99.90
31695;DHT22;18289;51.330;4.946;2023-02-18T09:30:41;11.50;99.90
31695;DHT22;18289;51.330;4.946;2023-02-18T09:33:06;11.40;99.90
31695;DHT22;18289;51.330;4.946;2023-02-18T09:35:32;11.50;99.90
31695;DHT22;18289;51.330;4.946;2023-02-18T09:37:58;11.10;99.90
31695;DHT22;18289;51.330;4.946;2023-02-18T09:40:27;10.90;99.90
31695;DHT22;18289;51.330;4.946;2023-02-18T09:42:55;10.80;99.90
31695;DHT22;18289;51.330;4.946;2023-02-18T09:45:22;10.70;99.90
31695;DHT22;18289;51.330;4.946;2023-02-18T09:47:49;10.80;99.90
31695;DHT22;18289;51.330;4.946;2023-02-18T09:50:41;10.90;99.90
31695;DHT22;18289;51.330;4.946;2023-02-18T09:53:10;10.90;99.90
31695;DHT22;18289;51.330;4.946;2023-02-18T09:55:40;10.90;99.90
31695;DHT22;18289;51.330;4.946;2023-02-18T09:58:21;10.90;99.90
31695;DHT22;18289;51.330;4.946;2023-02-18T10:00:51;11.00;99.90
31695;DHT22;18289;51.330;4.946;2023-02-18T10:03:21;11.00;99.90
31695;DHT22;18289;51.330;4.946;2023-02-18T10:06:09;11.10;99.90
31695;DHT22;18289;51.330;4.946;2023-02-18T10:08:43;11.20;99.90
31695;DHT22;18289;51.330;4.946;2023-02-18T10:11:12;11.20;99.90
31695;DHT22;18289;51.330;4.946;2023-02-18T10:13:41;11.30;99.90
31695;DHT22;18289;51.330;4.946;2023-02-18T10:16:08;11.30;99.90
31695;DHT22;18289;51.330;4.946;2023-02-18T10:18:47;11.30;99.90
31695;DHT22;18289;51.330;4.946;2023-02-18T10:21:15;11.40;99.90
31695;DHT22;18289;51.330;4.946;2023-02-18T10:23:59;11.40;99.90
31695;DHT22;18289;51.330;4.946;2023-02-18T10:26:26;11.50;99.90
31695;DHT22;18289;51.330;4.946;2023-02-18T10:28:53;11.50;99.90
31695;DHT22;18289;51.330;4.946;2023-02-18T10:31:33;11.50;99.90
31695;DHT22;18289;51.330;4.946;2023-02-18T10:42:39;11.70;99.90
31695;DHT22;18289;51.330;4.946;2023-02-18T10:45:27;11.70;99.90
31695;DHT22;18289;51.330;4.946;2023-02-18T10:50:39;11.80;99.90
31695;DHT22;18289;51.330;4.946;2023-02-18T10:53:24;11.80;99.90
31695;DHT22;18289;51.330;4.946;2023-02-18T10:55:52;11.80;99.90
31695;DHT22;18289;51.330;4.946;2023-02-18T10:58:42;11.80;99.90
31695;DHT22;18289;51.330;4.946;2023-02-18T11:01:19;11.90;99.90
31695;DHT22;18289;51.330;4.946;2023-02-18T11:04:04;12.00;99.90
31695;DHT22;18289;51.330;4.946;2023-02-18T11:06:45;12.10;99.90
31695;DHT22;18289;51.330;4.946;2023-02-18T11:12:21;12.10;99.90
31695;DHT22;18289;51.330;4.946;2023-02-18T11:14:50;12.10;99.90
31695;DHT22;18289;51.330;4.946;2023-02-18T11:17:30;12.10;99.90
31695;DHT22;18289;51.330;4.946;2023-02-18T11:20:01;12.30;99.90
31695;DHT22;18289;51.330;4.946;2023-02-18T11:22:33;12.20;99.90
31695;DHT22;18289;51.330;4.946;2023-02-18T11:25:21;12.30;99.90
31695;DHT22;18289;51.330;4.946;2023-02-18T11:30:44;12.00;99.90
31695;DHT22;18289;51.330;4.946;2023-02-18T11:33:20;12.10;99.90
31695;DHT22;18289;51.330;4.946;2023-02-18T11:35:54;12.20;99.90
31695;DHT22;18289;51.330;4.946;2023-02-18T11:38:36;12.20;99.90
31695;DHT22;18289;51.330;4.946;2023-02-18T11:41:15;12.10;99.90
31695;DHT22;18289;51.330;4.946;2023-02-18T11:43:45;12.20;99.90
31695;DHT22;18289;51.330;4.946;2023-02-18T11:46:20;12.30;99.90
31695;DHT22;18289;51.330;4.946;2023-02-18T11:48:47;12.40;99.90
31695;DHT22;18289;51.330;4.946;2023-02-18T11:51:26;12.30;99.90
31695;DHT22;18289;51.330;4.946;2023-02-18T11:54:04;12.20;99.90
31695;DHT22;18289;51.330;4.946;2023-02-18T11:56:37;12.20;99.90
31695;DHT22;18289;51.330;4.946;2023-02-18T11:59:03;12.10;99.90
31695;DHT22;18289;51.330;4.946;2023-02-18T12:01:44;12.20;99.90
31695;DHT22;18289;51.330;4.946;2023-02-18T12:04:26;12.20;99.90
31695;DHT22;18289;51.330;4.946;2023-02-18T12:07:16;12.30;99.90
31695;DHT22;18289;51.330;4.946;2023-02-18T12:09:48;12.40;99.90
31695;DHT22;18289;51.330;4.946;2023-02-18T12:12:30;12.50;99.90
31695;DHT22;18289;51.330;4.946;2023-02-18T12:14:58;12.30;99.90
31695;DHT22;18289;51.330;4.946;2023-02-18T12:26:24;12.40;99.90
31695;DHT22;18289;51.330;4.946;2023-02-18T12:29:11;12.50;99.90
31695;DHT22;18289;51.330;4.946;2023-02-18T12:37:35;12.60;99.90
31695;DHT22;18289;51.330;4.946;2023-02-18T12:45:48;12.60;99.90
31695;DHT22;18289;51.330;4.946;2023-02-18T13:08:13;12.60;99.90
31695;DHT22;18289;51.330;4.946;2023-02-18T13:11:03;12.70;99.90
31695;DHT22;18289;51.330;4.946;2023-02-18T13:13:59;12.70;99.90
31695;DHT22;18289;51.330;4.946;2023-02-18T13:16:28;12.80;99.90
31695;DHT22;18289;51.330;4.946;2023-02-18T13:21:45;13.20;99.90
31695;DHT22;18289;51.330;4.946;2023-02-18T13:24:27;13.20;99.90
31695;DHT22;18289;51.330;4.946;2023-02-18T13:27:00;13.20;99.90
31695;DHT22;18289;51.330;4.946;2023-02-18T13:29:33;13.30;99.90
31695;DHT22;18289;51.330;4.946;2023-02-18T13:32:11;13.30;99.90
31695;DHT22;18289;51.330;4.946;2023-02-18T13:34:52;13.10;99.90
31695;DHT22;18289;51.330;4.946;2023-02-18T13:39:55;13.00;99.90
31695;DHT22;18289;51.330;4.946;2023-02-18T13:42:33;13.00;99.90
31695;DHT22;18289;51.330;4.946;2023-02-18T13:47:36;13.00;99.90
31695;DHT22;18289;51.330;4.946;2023-02-18T13:52:48;13.00;99.90
31695;DHT22;18289;51.330;4.946;2023-02-18T13:55:23;13.10;99.90
31695;DHT22;18289;51.330;4.946;2023-02-18T13:57:53;13.30;99.90
31695;DHT22;18289;51.330;4.946;2023-02-18T14:00:23;13.60;99.90
31695;DHT22;18289;51.330;4.946;2023-02-18T14:02:58;13.80;99.90
31695;DHT22;18289;51.330;4.946;2023-02-18T14:05:25;14.00;99.90
31695;DHT22;18289;51.330;4.946;2023-02-18T14:08:14;14.10;99.90
31695;DHT22;18289;51.330;4.946;2023-02-18T14:10:40;14.60;99.90
31695;DHT22;18289;51.330;4.946;2023-02-18T14:13:38;14.90;99.90
31695;DHT22;18289;51.330;4.946;2023-02-18T14:16:05;15.10;99.90
31695;DHT22;18289;51.330;4.946;2023-02-18T14:21:36;15.20;99.90
31695;DHT22;18289;51.330;4.946;2023-02-18T14:24:05;15.20;99.90
31695;DHT22;18289;51.330;4.946;2023-02-18T14:26:34;15.10;99.90
31695;DHT22;18289;51.330;4.946;2023-02-18T14:29:13;14.80;99.90
31695;DHT22;18289;51.330;4.946;2023-02-18T14:32:00;14.50;99.90
31695;DHT22;18289;51.330;4.946;2023-02-18T14:34:34;14.30;99.90
31695;DHT22;18289;51.330;4.946;2023-02-18T14:45:57;13.90;99.90
31695;DHT22;18289;51.330;4.946;2023-02-18T14:50:53;14.10;99.90
31695;DHT22;18289;51.330;4.946;2023-02-18T14:53:23;14.00;99.90
31695;DHT22;18289;51.330;4.946;2023-02-18T14:55:52;14.00;99.90
31695;DHT22;18289;51.330;4.946;2023-02-18T14:58:34;13.90;99.90
31695;DHT22;18289;51.330;4.946;2023-02-18T15:01:26;13.90;99.90
31695;DHT22;18289;51.330;4.946;2023-02-18T15:03:54;13.70;99.90
31695;DHT22;18289;51.330;4.946;2023-02-18T15:06:24;13.70;99.90
31695;DHT22;18289;51.330;4.946;2023-02-18T15:08:50;13.60;99.90
31695;DHT22;18289;51.330;4.946;2023-02-18T15:11:16;13.60;99.90
31695;DHT22;18289;51.330;4.946;2023-02-18T15:13:45;13.60;99.90
31695;DHT22;18289;51.330;4.946;2023-02-18T15:16:29;13.60;99.90
31695;DHT22;18289;51.330;4.946;2023-02-18T15:19:04;13.50;99.90
31695;DHT22;18289;51.330;4.946;2023-02-18T15:21:39;13.50;99.90
31695;DHT22;18289;51.330;4.946;2023-02-18T15:24:37;13.40;99.90
31695;DHT22;18289;51.330;4.946;2023-02-18T15:29:40;13.10;99.90
31695;DHT22;18289;51.330;4.946;2023-02-18T15:32:20;12.80;99.90
31695;DHT22;18289;51.330;4.946;2023-02-18T15:34:52;12.60;99.90
31695;DHT22;18289;51.330;4.946;2023-02-18T15:37:18;12.60;99.90
31695;DHT22;18289;51.330;4.946;2023-02-18T15:39:45;12.50;99.90
31695;DHT22;18289;51.330;4.946;2023-02-18T15:44:45;12.30;99.90
31695;DHT22;18289;51.330;4.946;2023-02-18T15:47:11;12.20;99.90
31695;DHT22;18289;51.330;4.946;2023-02-18T15:49:39;12.20;99.90
31695;DHT22;18289;51.330;4.946;2023-02-18T15:52:09;12.20;99.90
31695;DHT22;18289;51.330;4.946;2023-02-18T15:54:37;12.20;99.90
31695;DHT22;18289;51.330;4.946;2023-02-18T15:57:04;12.10;99.90
31695;DHT22;18289;51.330;4.946;2023-02-18T15:59:35;12.10;99.90
31695;DHT22;18289;51.330;4.946;2023-02-18T16:02:11;12.10;99.90
31695;DHT22;18289;51.330;4.946;2023-02-18T16:04:40;12.00;99.90
31695;DHT22;18289;51.330;4.946;2023-02-18T16:07:24;11.90;99.90
31695;DHT22;18289;51.330;4.946;2023-02-18T16:09:56;11.80;99.90
31695;DHT22;18289;51.330;4.946;2023-02-18T16:12:31;11.70;99.90
31695;DHT22;18289;51.330;4.946;2023-02-18T16:14:58;11.70;99.90
31695;DHT22;18289;51.330;4.946;2023-02-18T16:17:26;11.70;99.90
31695;DHT22;18289;51.330;4.946;2023-02-18T16:20:21;11.70;99.90
31695;DHT22;18289;51.330;4.946;2023-02-18T16:22:53;11.70;99.90
31695;DHT22;18289;51.330;4.946;2023-02-18T16:25:44;11.70;99.90
31695;DHT22;18289;51.330;4.946;2023-02-18T16:28:23;11.70;99.90
31695;DHT22;18289;51.330;4.946;2023-02-18T16:30:49;11.70;99.90
31695;DHT22;18289;51.330;4.946;2023-02-18T16:33:15;11.70;99.90
31695;DHT22;18289;51.330;4.946;2023-02-18T16:35:41;11.70;99.90
31695;DHT22;18289;51.330;4.946;2023-02-18T16:38:18;11.60;99.90
31695;DHT22;18289;51.330;4.946;2023-02-18T16:40:44;11.60;99.90
31695;DHT22;18289;51.330;4.946;2023-02-18T16:43:24;11.60;99.90
31695;DHT22;18289;51.330;4.946;2023-02-18T16:46:05;11.60;99.90
31695;DHT22;18289;51.330;4.946;2023-02-18T16:48:39;11.50;99.90
31695;DHT22;18289;51.330;4.946;2023-02-18T16:51:10;11.50;99.90
31695;DHT22;18289;51.330;4.946;2023-02-18T16:53:37;11.50;99.90
31695;DHT22;18289;51.330;4.946;2023-02-18T16:56:05;11.50;99.90
31695;DHT22;18289;51.330;4.946;2023-02-18T16:58:30;11.40;99.90
31695;DHT22;18289;51.330;4.946;2023-02-18T17:00:56;11.40;99.90
31695;DHT22;18289;51.330;4.946;2023-02-18T17:03:22;11.40;99.90
31695;DHT22;18289;51.330;4.946;2023-02-18T17:05:48;11.40;99.90
31695;DHT22;18289;51.330;4.946;2023-02-18T17:08:25;11.30;99.90
31695;DHT22;18289;51.330;4.946;2023-02-18T17:10:56;11.30;99.90
31695;DHT22;18289;51.330;4.946;2023-02-18T17:13:24;11.40;99.90
31695;DHT22;18289;51.330;4.946;2023-02-18T17:15:52;11.30;99.90
31695;DHT22;18289;51.330;4.946;2023-02-18T17:18:18;11.20;99.90
31695;DHT22;18289;51.330;4.946;2023-02-18T17:20:44;11.30;99.90
31695;DHT22;18289;51.330;4.946;2023-02-18T17:34:45;11.30;99.90
31695;DHT22;18289;51.330;4.946;2023-02-18T17:37:12;11.70;99.90
31695;DHT22;18289;51.330;4.946;2023-02-18T17:39:38;11.60;99.90
31695;DHT22;18289;51.330;4.946;2023-02-18T17:42:04;11.60;99.90
31695;DHT22;18289;51.330;4.946;2023-02-18T17:44:29;11.60;99.90
31695;DHT22;18289;51.330;4.946;2023-02-18T17:46:55;11.50;99.90
31695;DHT22;18289;51.330;4.946;2023-02-18T17:49:21;11.50;99.90
31695;DHT22;18289;51.330;4.946;2023-02-18T17:51:47;11.60;99.90
31695;DHT22;18289;51.330;4.946;2023-02-18T17:54:15;11.60;99.90
31695;DHT22;18289;51.330;4.946;2023-02-18T17:56:42;11.60;99.90
31695;DHT22;18289;51.330;4.946;2023-02-18T17:59:08;11.60;99.90
31695;DHT22;18289;51.330;4.946;2023-02-18T18:01:34;11.60;99.90